Time;durP1;ratioP1;P1;durP2;ratioP2;P2;SDS_P1;SDS_P2;PMS_P1;PMS_P2;Temp;Humidity;BMP_temperature;BMP_pressure;BME280_temperature;BME280_humidity;BME280_pressure;Samples;Min_cycle;Max_cycle;Signal;HPM_P1;HPM_P2
2022/03/29 00:02:14;;;;;;;0.00;0.00;;;12.80;99.90;;;;;;5060542;28;20029;-72
2022/03/29 00:04:40;;;;;;;0.00;0.00;;;12.80;99.90;;;;;;5058911;28;20239;-72
2022/03/29 00:07:06;;;;;;;0.00;0.00;;;12.90;99.90;;;;;;5061096;28;20115;-72
2022/03/29 00:09:32;;;;;;;0.00;0.00;;;12.80;99.90;;;;;;5060357;28;20055;-72
2022/03/29 00:11:58;;;;;;;0.00;0.00;;;12.80;99.90;;;;;;5060793;28;20055;-74
2022/03/29 00:14:23;;;;;;;0.00;0.00;;;12.80;99.90;;;;;;5060280;28;20036;-73
2022/03/29 00:16:49;;;;;;;0.00;0.00;;;12.70;99.90;;;;;;5059645;28;20039;-76
2022/03/29 00:19:15;;;;;;;0.00;0.00;;;12.70;99.90;;;;;;5072141;28;20243;-74
2022/03/29 00:21:41;;;;;;;0.00;0.00;;;12.70;99.90;;;;;;5062240;28;20016;-75
2022/03/29 00:24:07;;;;;;;0.00;0.00;;;12.60;99.90;;;;;;5062815;28;20021;-70
2022/03/29 00:26:51;;;;;;;0.00;0.00;;;12.60;99.90;;;;;;5079703;28;20021;-72
2022/03/29 00:29:17;;;;;;;0.00;0.00;;;12.60;99.90;;;;;;5080704;28;20036;-72
2022/03/29 00:31:43;;;;;;;0.00;0.00;;;12.50;99.90;;;;;;5061230;28;20020;-73
2022/03/29 00:34:08;;;;;;;0.00;0.00;;;12.50;99.90;;;;;;5080291;28;20017;-72
2022/03/29 00:36:34;;;;;;;0.00;0.00;;;12.40;99.90;;;;;;5079575;28;20306;-73
2022/03/29 00:39:00;;;;;;;0.00;0.00;;;12.40;99.90;;;;;;5080079;28;20121;-72
2022/03/29 00:41:26;;;;;;;0.00;0.00;;;12.30;99.90;;;;;;5079729;28;20024;-73
2022/03/29 00:43:52;;;;;;;0.00;0.00;;;12.30;99.90;;;;;;5062034;28;20020;-71
2022/03/29 00:46:18;;;;;;;0.00;0.00;;;12.30;99.90;;;;;;5080270;28;20217;-71
2022/03/29 00:48:44;;;;;;;0.00;0.00;;;12.20;99.90;;;;;;5079345;28;20050;-72
2022/03/29 00:51:10;;;;;;;0.00;0.00;;;12.20;99.90;;;;;;5062219;28;20021;-72
2022/03/29 00:53:36;;;;;;;0.00;0.00;;;12.20;99.90;;;;;;5079342;28;20280;-72
2022/03/29 00:56:02;;;;;;;0.00;0.00;;;12.20;99.90;;;;;;5061891;28;20122;-73
2022/03/29 00:58:29;;;;;;;0.00;0.00;;;12.20;99.90;;;;;;5061406;28;20070;-72
2022/03/29 01:00:58;;;;;;;0.00;0.00;;;12.20;99.90;;;;;;5079718;28;20012;-72
2022/03/29 01:03:24;;;;;;;0.00;0.00;;;12.10;99.90;;;;;;5079266;28;20062;-72
2022/03/29 01:05:50;;;;;;;0.00;0.00;;;12.10;99.90;;;;;;5079690;28;20029;-72
2022/03/29 01:08:16;;;;;;;0.00;0.00;;;12.10;99.90;;;;;;5060873;28;20079;-72
2022/03/29 01:10:44;;;;;;;0.00;0.00;;;12.10;99.90;;;;;;5078152;28;20031;-72
2022/03/29 01:13:09;;;;;;;0.00;0.00;;;12.10;99.90;;;;;;5061293;28;20020;-72
2022/03/29 01:15:37;;;;;;;0.00;0.00;;;12.10;99.90;;;;;;5079033;28;20031;-72
2022/03/29 01:18:05;;;;;;;0.00;0.00;;;12.10;99.90;;;;;;5061265;28;20024;-72
2022/03/29 01:20:32;;;;;;;0.00;0.00;;;12.00;99.90;;;;;;5079001;28;20241;-72
2022/03/29 01:23:01;;;;;;;0.00;0.00;;;12.00;99.90;;;;;;5061082;28;20069;-73
2022/03/29 01:25:36;;;;;;;0.00;0.00;;;12.00;99.90;;;;;;5078860;28;20013;-73
2022/03/29 01:28:03;;;;;;;0.00;0.00;;;12.00;99.90;;;;;;5079306;28;20016;-73
2022/03/29 01:30:29;;;;;;;0.00;0.00;;;11.90;99.90;;;;;;5078588;28;20304;-72
2022/03/29 01:32:56;;;;;;;0.00;0.00;;;12.00;99.90;;;;;;5078996;28;20020;-72
2022/03/29 01:35:24;;;;;;;0.00;0.00;;;11.90;99.90;;;;;;5078788;28;20107;-72
2022/03/29 01:37:51;;;;;;;0.00;0.00;;;11.90;99.90;;;;;;5079441;28;20058;-72
2022/03/29 01:40:20;;;;;;;0.00;0.00;;;11.90;99.90;;;;;;5061290;28;20024;-72
2022/03/29 01:42:51;;;;;;;0.00;0.00;;;11.80;99.90;;;;;;5078318;28;20027;-72
2022/03/29 01:45:19;;;;;;;0.00;0.00;;;11.80;99.90;;;;;;5078583;28;20024;-72
2022/03/29 01:47:45;;;;;;;0.00;0.00;;;11.80;99.90;;;;;;5078469;28;20017;-72
2022/03/29 01:50:14;;;;;;;0.00;0.00;;;11.70;99.90;;;;;;5078744;28;20046;-72
2022/03/29 01:52:42;;;;;;;0.00;0.00;;;11.70;99.90;;;;;;5060483;28;20233;-72
2022/03/29 01:55:08;;;;;;;;;;;11.70;99.90;;;;;;5079454;28;20075;-72
2022/03/29 01:57:34;;;;;;;0.00;0.00;;;11.70;99.90;;;;;;5078541;28;19900;-72
2022/03/29 02:02:44;;;;;;;0.00;0.00;;;11.60;99.90;;;;;;5076525;28;20356;-69
2022/03/29 02:05:10;;;;;;;0.00;0.00;;;11.60;99.90;;;;;;5058474;28;20024;-70
2022/03/29 02:07:36;;;;;;;0.00;0.00;;;11.60;99.90;;;;;;5075760;28;20315;-70
2022/03/29 02:10:02;;;;;;;0.00;0.00;;;11.60;99.90;;;;;;5058602;28;20036;-74
2022/03/29 02:12:28;;;;;;;0.00;0.00;;;11.50;99.90;;;;;;5076211;28;20017;-72
2022/03/29 02:14:54;;;;;;;0.00;0.00;;;11.50;99.90;;;;;;5058670;28;20032;-71
2022/03/29 02:17:20;;;;;;;0.00;0.00;;;11.50;99.90;;;;;;5058363;28;20036;-71
2022/03/29 02:19:45;;;;;;;0.00;0.00;;;11.50;99.90;;;;;;5075129;28;20269;-70
2022/03/29 02:22:11;;;;;;;0.00;0.00;;;11.40;99.90;;;;;;5058647;28;20040;-75
2022/03/29 02:24:38;;;;;;;0.00;0.00;;;11.50;99.90;;;;;;5057984;28;20036;-70
2022/03/29 02:27:04;;;;;;;0.00;0.00;;;11.40;99.90;;;;;;5058516;28;20021;-69
2022/03/29 02:29:30;;;;;;;0.00;0.00;;;11.40;99.90;;;;;;5057737;28;20342;-70
2022/03/29 02:31:57;;;;;;;0.00;0.00;;;11.40;99.90;;;;;;5058623;28;20020;-70
2022/03/29 02:34:22;;;;;;;0.00;0.00;;;11.40;99.90;;;;;;5076735;28;20101;-74
2022/03/29 02:36:48;;;;;;;0.00;0.00;;;11.40;99.90;;;;;;5058100;28;20291;-69
2022/03/29 02:39:14;;;;;;;0.00;0.00;;;11.30;99.90;;;;;;5058298;28;20021;-71
2022/03/29 02:41:40;;;;;;;0.00;0.00;;;11.30;99.90;;;;;;5076326;28;20020;-69
2022/03/29 02:44:06;;;;;;;0.00;0.00;;;11.30;99.90;;;;;;5058244;28;20020;-70
2022/03/29 02:46:33;;;;;;;0.00;0.00;;;11.30;99.90;;;;;;5057720;28;20088;-73
2022/03/29 02:48:59;;;;;;;0.00;0.00;;;11.20;99.90;;;;;;5076605;28;20020;-69
2022/03/29 02:51:25;;;;;;;0.00;0.00;;;11.20;99.90;;;;;;5057393;28;20299;-73
2022/03/29 02:53:51;;;;;;;0.00;0.00;;;11.20;99.90;;;;;;5058144;28;20214;-73
2022/03/29 02:56:17;;;;;;;0.00;0.00;;;11.10;99.90;;;;;;5058512;28;20299;-69
2022/03/29 02:58:42;;;;;;;0.00;0.00;;;11.10;99.90;;;;;;5057320;28;20032;-70
2022/03/29 03:01:08;;;;;;;0.00;0.00;;;11.10;99.90;;;;;;5076078;28;20314;-70
2022/03/29 03:03:34;;;;;;;0.00;0.00;;;11.00;99.90;;;;;;5075775;28;20023;-69
2022/03/29 03:06:18;;;;;;;0.00;0.00;;;11.10;99.90;;;;;;5076304;28;20039;-68
2022/03/29 03:08:45;;;;;;;0.00;0.00;;;11.10;99.90;;;;;;5075465;28;20151;-68
2022/03/29 03:11:11;;;;;;;0.00;0.00;;;11.00;99.90;;;;;;5076440;28;20095;-72
2022/03/29 03:13:36;;;;;;;0.00;0.00;;;11.00;99.90;;;;;;5057926;28;20088;-70
2022/03/29 03:16:03;;;;;;;0.00;0.00;;;11.00;99.90;;;;;;5076453;28;20032;-69
2022/03/29 03:18:29;;;;;;;0.00;0.00;;;10.90;99.90;;;;;;5057457;28;20095;-69
2022/03/29 03:20:55;;;;;;;0.00;0.00;;;10.90;99.90;;;;;;5057879;28;20079;-70
2022/03/29 03:23:21;;;;;;;0.00;0.00;;;10.90;99.90;;;;;;5076228;28;20400;-74
2022/03/29 03:25:49;;;;;;;0.00;0.00;;;10.90;99.90;;;;;;5075782;28;20017;-70
2022/03/29 03:28:15;;;;;;;0.00;0.00;;;10.90;99.90;;;;;;5075908;28;20036;-69
2022/03/29 03:30:41;;;;;;;0.00;0.00;;;10.90;99.90;;;;;;5056878;28;20303;-72
2022/03/29 03:33:06;;;;;;;0.00;0.00;;;10.90;99.90;;;;;;5059802;28;20020;-71
2022/03/29 03:35:32;;;;;;;0.00;0.00;;;10.90;99.90;;;;;;5060070;28;20200;-70
2022/03/29 03:37:58;;;;;;;0.00;0.00;;;11.00;99.90;;;;;;5079359;28;20046;-72
2022/03/29 03:40:24;;;;;;;0.00;0.00;;;10.90;99.90;;;;;;5078558;28;20016;-75
2022/03/29 03:42:49;;;;;;;0.00;0.00;;;10.90;99.90;;;;;;5060623;28;20092;-70
2022/03/29 03:45:15;;;;;;;0.00;0.00;;;10.90;99.90;;;;;;5061301;28;20023;-69
2022/03/29 03:47:41;;;;;;;0.00;0.00;;;10.90;99.90;;;;;;5060567;28;20071;-72
2022/03/29 03:50:08;;;;;;;0.00;0.00;;;11.00;99.90;;;;;;5078800;28;20099;-71
2022/03/29 03:52:34;;;;;;;0.00;0.00;;;10.90;99.90;;;;;;5060320;28;20329;-70
2022/03/29 03:55:00;;;;;;;0.00;0.00;;;10.90;99.90;;;;;;5061238;28;20086;-69
2022/03/29 03:57:27;;;;;;;0.00;0.00;;;10.80;99.90;;;;;;5078323;28;20088;-73
2022/03/29 03:59:55;;;;;;;0.00;0.00;;;10.90;99.90;;;;;;5078497;28;20107;-69
2022/03/29 04:02:22;;;;;;;0.00;0.00;;;11.00;99.90;;;;;;5060743;28;20031;-73
2022/03/29 04:04:48;;;;;;;0.00;0.00;;;10.80;99.90;;;;;;5060297;28;20021;-70
2022/03/29 04:07:32;;;;;;;0.00;0.00;;;10.80;99.90;;;;;;5078385;28;20047;-69
2022/03/29 04:09:58;;;;;;;0.00;0.00;;;10.80;99.90;;;;;;5061087;28;20123;-70
2022/03/29 04:12:24;;;;;;;0.00;0.00;;;10.80;99.90;;;;;;5060182;28;20087;-75
2022/03/29 04:14:50;;;;;;;0.00;0.00;;;10.80;99.90;;;;;;5078681;28;20188;-74
2022/03/29 04:17:16;;;;;;;0.00;0.00;;;10.70;99.90;;;;;;5060499;28;20066;-69
2022/03/29 04:19:41;;;;;;;0.00;0.00;;;10.70;99.90;;;;;;5056478;28;20040;-73
2022/03/29 04:22:07;;;;;;;0.00;0.00;;;10.70;99.90;;;;;;5056976;28;20107;-69
2022/03/29 04:24:34;;;;;;;0.00;0.00;;;10.70;99.90;;;;;;5057611;28;20070;-69
2022/03/29 04:26:59;;;;;;;0.00;0.00;;;10.70;99.90;;;;;;5058343;28;20017;-71
2022/03/29 04:29:25;;;;;;;0.00;0.00;;;10.70;99.90;;;;;;5056570;28;20037;-75
2022/03/29 04:31:52;;;;;;;0.00;0.00;;;10.70;99.90;;;;;;5056647;28;20100;-76
2022/03/29 04:34:18;;;;;;;0.00;0.00;;;10.70;99.90;;;;;;5057207;28;20020;-71
2022/03/29 04:36:43;;;;;;;0.00;0.00;;;10.70;99.90;;;;;;5056355;28;20317;-69
2022/03/29 04:39:09;;;;;;;0.00;0.00;;;10.70;99.90;;;;;;5056715;28;20071;-70
2022/03/29 04:41:35;;;;;;;0.00;0.00;;;10.70;99.90;;;;;;5056927;28;20056;-70
2022/03/29 04:44:01;;;;;;;0.00;0.00;;;10.60;99.90;;;;;;5056483;28;20200;-74
2022/03/29 04:46:27;;;;;;;0.00;0.00;;;10.60;99.90;;;;;;5056048;28;20065;-75
2022/03/29 04:48:53;;;;;;;0.00;0.00;;;10.60;99.90;;;;;;5056337;28;20233;-69
2022/03/29 04:51:19;;;;;;;0.00;0.00;;;10.70;99.90;;;;;;5056689;28;20016;-71
2022/03/29 04:53:45;;;;;;;0.00;0.00;;;10.60;99.90;;;;;;5057200;28;20068;-69
2022/03/29 04:56:11;;;;;;;0.00;0.00;;;10.70;99.90;;;;;;5057844;28;20048;-73
2022/03/29 04:58:36;;;;;;;0.00;0.00;;;10.70;99.90;;;;;;5056668;28;20028;-69
2022/03/29 05:01:04;;;;;;;0.00;0.00;;;10.60;99.90;;;;;;5056321;28;20017;-70
2022/03/29 05:03:34;;;;;;;0.00;0.00;;;10.60;99.90;;;;;;5057523;28;20016;-70
2022/03/29 05:06:00;;;;;;;0.00;0.00;;;10.70;99.90;;;;;;5056308;28;20100;-72
2022/03/29 05:08:26;;;;;;;0.00;0.00;;;10.70;99.90;;;;;;5057491;28;20078;-72
2022/03/29 05:10:52;;;;;;;0.00;0.00;;;10.50;99.90;;;;;;5056107;28;20028;-75
2022/03/29 05:13:18;;;;;;;0.00;0.00;;;10.70;99.90;;;;;;5056251;28;20017;-75
2022/03/29 05:15:44;;;;;;;0.00;0.00;;;10.70;99.90;;;;;;5055389;28;20120;-70
2022/03/29 05:18:10;;;;;;;0.00;0.00;;;10.60;99.90;;;;;;5055713;28;20047;-71
2022/03/29 05:20:36;;;;;;;0.00;0.00;;;10.70;99.90;;;;;;5054662;28;20271;-74
2022/03/29 05:23:06;;;;;;;0.00;0.00;;;10.80;99.90;;;;;;5055433;28;20043;-73
2022/03/29 05:25:32;;;;;;;0.00;0.00;;;10.90;99.90;;;;;;5055923;28;20068;-69
2022/03/29 05:27:58;;;;;;;0.00;0.00;;;10.80;99.90;;;;;;5057410;28;20090;-71
2022/03/29 05:30:24;;;;;;;0.00;0.00;;;10.80;99.90;;;;;;5054601;28;20020;-68
2022/03/29 05:32:51;;;;;;;0.00;0.00;;;10.80;99.90;;;;;;5056817;28;20131;-68
2022/03/29 05:35:17;;;;;;;0.00;0.00;;;10.80;99.90;;;;;;5055017;28;20043;-72
2022/03/29 05:37:43;;;;;;;0.00;0.00;;;11.00;99.90;;;;;;5057028;28;20051;-69
2022/03/29 05:40:11;;;;;;;0.00;0.00;;;11.00;99.90;;;;;;5056594;28;20033;-68
2022/03/29 05:42:38;;;;;;;0.00;0.00;;;11.00;99.90;;;;;;5055098;28;20110;-70
2022/03/29 05:45:05;;;;;;;0.00;0.00;;;11.10;99.90;;;;;;5057010;28;20017;-69
2022/03/29 05:50:15;;;;;;;0.00;0.00;;;11.20;99.90;;;;;;5057465;28;20231;-82
2022/03/29 05:52:41;;;;;;;0.00;0.00;;;11.40;99.90;;;;;;5059065;28;20021;-81
2022/03/29 05:55:08;;;;;;;0.00;0.00;;;11.70;99.90;;;;;;5057201;28;20357;-68
2022/03/29 05:57:34;;;;;;;0.00;0.00;;;12.00;99.90;;;;;;5055375;28;20032;-70
2022/03/29 05:59:59;;;;;;;0.00;0.00;;;12.20;99.90;;;;;;5055836;28;20085;-70
2022/03/29 06:02:25;;;;;;;0.00;0.00;;;12.40;99.90;;;;;;5056266;28;20025;-70
2022/03/29 06:04:51;;;;;;;0.00;0.00;;;12.60;99.90;;;;;;5055585;28;20111;-82
2022/03/29 06:07:17;;;;;;;0.00;0.00;;;12.80;99.90;;;;;;5055546;28;20127;-78
2022/03/29 06:09:44;;;;;;;0.00;0.00;;;13.30;99.90;;;;;;5056985;28;20093;-73
2022/03/29 06:12:10;;;;;;;0.00;0.00;;;13.30;96.90;;;;;;5055299;28;20021;-68
2022/03/29 06:14:54;;;;;;;0.00;0.00;;;13.30;97.50;;;;;;5054395;28;20017;-69
2022/03/29 06:17:20;;;;;;;0.00;0.00;;;13.40;99.90;;;;;;5055809;28;20021;-68
2022/03/29 06:19:46;;;;;;;0.00;0.00;;;13.40;99.80;;;;;;5055227;28;20116;-68
2022/03/29 06:22:12;;;;;;;0.00;0.00;;;13.40;97.40;;;;;;5055644;28;20017;-71
2022/03/29 06:24:38;;;;;;;0.00;0.00;;;13.40;98.40;;;;;;5054961;28;20118;-67
2022/03/29 06:27:04;;;;;;;0.00;0.00;;;13.40;99.90;;;;;;5055590;28;20067;-68
2022/03/29 06:29:49;;;;;;;0.00;0.00;;;13.50;99.90;;;;;;5055385;28;20292;-69
2022/03/29 06:32:15;;;;;;;0.00;0.00;;;13.50;99.90;;;;;;5054438;28;20017;-70
2022/03/29 06:34:40;;;;;;;0.00;0.00;;;13.60;99.90;;;;;;5055296;28;20181;-73
2022/03/29 06:37:08;;;;;;;0.00;0.00;;;13.60;99.90;;;;;;5055222;28;20028;-68
2022/03/29 06:39:36;;;;;;;0.00;0.00;;;13.70;99.80;;;;;;5056358;28;20021;-68
2022/03/29 06:42:02;;;;;;;0.00;0.00;;;13.80;98.30;;;;;;5056968;28;20098;-67
2022/03/29 06:44:28;;;;;;;0.00;0.00;;;13.80;99.90;;;;;;5055196;28;20017;-68
2022/03/29 06:46:55;;;;;;;0.00;0.00;;;13.90;99.90;;;;;;5057435;28;20187;-69
2022/03/29 06:49:21;;;;;;;0.00;0.00;;;14.00;99.90;;;;;;5055410;28;20029;-73
2022/03/29 06:51:47;;;;;;;0.00;0.00;;;14.10;99.90;;;;;;5055030;28;20422;-68
2022/03/29 06:54:14;;;;;;;0.00;0.00;;;14.10;99.90;;;;;;5055406;28;20016;-68
2022/03/29 06:56:40;;;;;;;0.00;0.00;;;14.20;99.90;;;;;;5055181;28;20037;-70
2022/03/29 06:59:06;;;;;;;0.00;0.00;;;14.20;99.90;;;;;;5056552;28;20096;-68
2022/03/29 07:01:32;;;;;;;0.00;0.00;;;14.30;99.90;;;;;;5040657;28;20391;-75
2022/03/29 07:03:59;;;;;;;0.00;0.00;;;14.30;96.90;;;;;;5043700;28;20021;-68
2022/03/29 07:06:30;;;;;;;0.00;0.00;;;14.40;92.70;;;;;;5054124;28;20080;-68
2022/03/29 07:11:40;;;;;;;0.00;0.00;;;14.60;93.90;;;;;;5058446;28;20197;-73
2022/03/29 07:14:07;;;;;;;0.00;0.00;;;14.70;90.70;;;;;;5058053;28;20017;-69
2022/03/29 07:16:33;;;;;;;0.00;0.00;;;14.70;92.40;;;;;;5056247;28;20300;-68
2022/03/29 07:18:59;;;;;;;0.00;0.00;;;14.80;91.70;;;;;;5059113;28;20272;-69
2022/03/29 07:21:25;;;;;;;0.00;0.00;;;14.80;92.00;;;;;;5076199;28;20097;-69
2022/03/29 07:23:51;;;;;;;0.00;0.00;;;14.80;90.10;;;;;;5059634;28;20082;-69
2022/03/29 07:26:17;;;;;;;0.00;0.00;;;14.90;89.40;;;;;;5059433;28;20028;-72
2022/03/29 07:28:43;;;;;;;0.00;0.00;;;14.90;90.40;;;;;;5077638;28;20086;-68
2022/03/29 07:31:09;;;;;;;0.00;0.00;;;15.00;89.10;;;;;;5078439;28;20302;-69
2022/03/29 07:33:35;;;;;;;0.00;0.00;;;15.00;87.50;;;;;;5077955;28;20040;-69
2022/03/29 07:36:03;;;;;;;0.00;0.00;;;15.20;87.10;;;;;;5060118;28;20122;-73
2022/03/29 07:38:29;;;;;;;0.00;0.00;;;15.20;82.50;;;;;;5078351;28;20031;-69
2022/03/29 07:40:55;;;;;;;0.00;0.00;;;15.30;86.10;;;;;;5078124;28;20116;-69
2022/03/29 07:43:22;;;;;;;0.00;0.00;;;15.40;82.90;;;;;;5054055;28;20180;-69
2022/03/29 07:45:47;;;;;;;0.00;0.00;;;15.40;83.30;;;;;;5060079;28;20043;-70
2022/03/29 07:48:13;;;;;;;0.00;0.00;;;15.50;87.10;;;;;;5077196;28;20258;-69
2022/03/29 07:50:40;;;;;;;0.00;0.00;;;15.50;81.30;;;;;;5059154;28;20092;-70
2022/03/29 07:53:06;;;;;;;0.00;0.00;;;15.50;81.20;;;;;;5078208;28;20017;-73
2022/03/29 07:55:33;;;;;;;0.00;0.00;;;15.50;89.20;;;;;;5059461;28;20028;-68
2022/03/29 07:57:59;;;;;;;0.00;0.00;;;15.50;84.10;;;;;;5078145;28;20148;-68
2022/03/29 08:00:31;;;;;;;0.00;0.00;;;15.60;83.20;;;;;;5059762;28;20085;-67
2022/03/29 08:02:58;;;;;;;0.00;0.00;;;15.70;86.00;;;;;;5078063;28;20021;-70
2022/03/29 08:05:24;;;;;;;0.00;0.00;;;15.70;82.30;;;;;;5059218;28;20095;-66
2022/03/29 08:07:51;;;;;;;0.00;0.00;;;15.80;80.20;;;;;;5059626;28;20314;-68
2022/03/29 08:10:17;;;;;;;0.00;0.00;;;15.90;79.50;;;;;;5059342;28;20127;-74
2022/03/29 08:12:43;;;;;;;0.00;0.00;;;15.90;78.20;;;;;;5077721;28;20280;-69
2022/03/29 08:15:10;;;;;;;0.00;0.00;;;15.90;79.20;;;;;;5059550;28;20012;-67
2022/03/29 08:17:39;;;;;;;0.00;0.00;;;15.90;78.10;;;;;;5076865;28;20212;-71
2022/03/29 08:20:06;;;;;;;0.00;0.00;;;15.90;78.60;;;;;;5058679;28;20059;-72
2022/03/29 08:22:33;;;;;;;0.00;0.00;;;16.10;75.90;;;;;;5058530;28;20085;-69
2022/03/29 08:24:59;;;;;;;0.00;0.00;;;16.10;79.00;;;;;;5059509;28;20249;-69
2022/03/29 08:27:25;;;;;;;0.00;0.00;;;16.10;76.60;;;;;;5058809;28;20048;-72
2022/03/29 08:29:51;;;;;;;0.00;0.00;;;16.10;77.30;;;;;;5058372;28;20292;-72
2022/03/29 08:32:17;;;;;;;0.00;0.00;;;16.30;76.10;;;;;;5077304;28;20118;-71
2022/03/29 08:34:42;;;;;;;0.00;0.00;;;16.30;74.80;;;;;;5059415;28;20058;-68
2022/03/29 08:37:08;;;;;;;0.00;0.00;;;16.30;76.50;;;;;;5059308;28;20105;-67
2022/03/29 08:39:34;;;;;;;0.00;0.00;;;16.40;69.40;;;;;;5076589;28;20103;-67
2022/03/29 08:42:07;;;;;;;0.00;0.00;;;16.40;74.00;;;;;;5076851;28;20021;-68
2022/03/29 08:44:33;;;;;;;0.00;0.00;;;16.50;76.40;;;;;;5076363;28;20024;-69
2022/03/29 08:47:00;;;;;;;0.00;0.00;;;16.50;73.80;;;;;;5076797;28;20027;-69
2022/03/29 08:49:27;;;;;;;0.00;0.00;;;16.60;71.80;;;;;;5076216;28;20024;-71
2022/03/29 08:51:53;;;;;;;0.00;0.00;;;16.60;71.00;;;;;;5058708;28;20046;-68
2022/03/29 08:54:20;;;;;;;0.00;0.00;;;16.70;74.30;;;;;;5076535;28;20020;-68
2022/03/29 08:56:46;;;;;;;0.00;0.00;;;16.70;73.90;;;;;;5077315;28;20016;-66
2022/03/29 08:59:12;;;;;;;0.00;0.00;;;16.80;74.40;;;;;;5058513;28;20020;-70
2022/03/29 09:01:38;;;;;;;0.00;0.00;;;16.70;72.70;;;;;;5058188;28;20028;-69
2022/03/29 09:04:09;;;;;;;0.00;0.00;;;16.80;74.80;;;;;;5058762;28;20188;-71
2022/03/29 09:07:02;;;;;;;0.00;0.00;;;16.90;71.30;;;;;;5076229;28;20069;-71
2022/03/29 09:09:35;;;;;;;0.00;0.00;;;16.90;73.10;;;;;;5053368;28;20064;-68
2022/03/29 09:12:15;;;;;;;0.00;0.00;;;17.00;70.20;;;;;;5076337;28;20023;-69
2022/03/29 09:14:57;;;;;;;0.00;0.00;;;17.00;75.80;;;;;;5057574;28;20017;-68
2022/03/29 09:17:33;;;;;;;0.00;0.00;;;17.10;73.80;;;;;;5075917;28;20045;-68
2022/03/29 09:20:14;;;;;;;0.00;0.00;;;17.30;70.80;;;;;;5075661;28;20057;-68
2022/03/29 09:23:06;;;;;;;0.00;0.00;;;17.20;70.70;;;;;;5057641;28;20035;-70
2022/03/29 09:25:35;;;;;;;0.00;0.00;;;17.40;71.60;;;;;;5058137;28;20025;-68
2022/03/29 09:28:05;;;;;;;0.00;0.00;;;17.40;72.40;;;;;;5058279;28;20251;-69
2022/03/29 09:30:40;;;;;;;0.00;0.00;;;17.50;74.10;;;;;;5057342;28;20028;-69
2022/03/29 09:33:10;;;;;;;0.00;0.00;;;17.60;75.30;;;;;;5057692;28;20027;-68
2022/03/29 09:35:52;;;;;;;0.00;0.00;;;17.80;73.10;;;;;;5075732;28;20039;-68
2022/03/29 09:38:31;;;;;;;0.00;0.00;;;18.00;70.90;;;;;;5057646;28;20021;-75
2022/03/29 09:40:58;;;;;;;0.00;0.00;;;18.10;69.70;;;;;;5058406;28;20307;-70
2022/03/29 09:43:26;;;;;;;0.00;0.00;;;18.20;69.70;;;;;;5075910;28;20154;-70
2022/03/29 09:45:55;;;;;;;0.00;0.00;;;18.20;72.00;;;;;;5075562;28;20266;-75
2022/03/29 09:48:32;;;;;;;0.00;0.00;;;18.30;72.10;;;;;;5057308;28;20084;-71
2022/03/29 09:51:15;;;;;;;0.00;0.00;;;18.30;70.60;;;;;;5057930;28;20096;-70
2022/03/29 09:53:51;;;;;;;0.00;0.00;;;18.40;69.00;;;;;;5057476;28;20047;-76
2022/03/29 09:56:24;;;;;;;0.00;0.00;;;18.50;68.90;;;;;;5076369;28;20031;-76
2022/03/29 09:59:14;;;;;;;0.00;0.00;;;18.50;78.40;;;;;;5076231;28;20260;-77
2022/03/29 10:01:57;;;;;;;0.00;0.00;;;18.80;75.90;;;;;;5057193;28;20202;-73
2022/03/29 10:04:33;;;;;;;0.00;0.00;;;19.00;70.50;;;;;;5057402;28;20052;-80
2022/03/29 10:07:04;;;;;;;0.00;0.00;;;19.00;74.20;;;;;;5058626;28;20020;-73
2022/03/29 10:09:33;;;;;;;0.00;0.00;;;19.30;78.90;;;;;;5055499;28;20099;-71
2022/03/29 10:12:09;;;;;;;0.00;0.00;;;19.60;77.40;;;;;;5057267;28;20017;-73
2022/03/29 10:14:41;;;;;;;0.00;0.00;;;20.00;72.40;;;;;;5075969;28;20028;-71
2022/03/29 10:17:08;;;;;;;0.00;0.00;;;20.60;66.80;;;;;;5057238;28;20020;-74
2022/03/29 10:19:38;;;;;;;0.00;0.00;;;21.00;67.80;;;;;;5056115;28;20098;-77
2022/03/29 10:22:05;;;;;;;0.00;0.00;;;21.50;70.60;;;;;;5074460;28;20021;-71
2022/03/29 10:24:32;;;;;;;0.00;0.00;;;22.00;68.70;;;;;;5055884;28;20337;-72
2022/03/29 10:27:02;;;;;;;0.00;0.00;;;22.60;59.00;;;;;;5056142;28;20028;-68
2022/03/29 10:29:29;;;;;;;0.00;0.00;;;22.80;55.80;;;;;;5056690;28;20067;-69
2022/03/29 10:32:07;;;;;;;0.00;0.00;;;23.10;63.00;;;;;;5056803;28;20074;-69
2022/03/29 10:34:39;;;;;;;0.00;0.00;;;23.30;59.40;;;;;;5056999;28;20262;-74
2022/03/29 10:37:16;;;;;;;0.00;0.00;;;23.30;54.70;;;;;;5075685;28;20024;-74
2022/03/29 10:39:44;;;;;;;0.00;0.00;;;23.30;56.40;;;;;;5074818;28;20119;-70
2022/03/29 10:42:26;;;;;;;0.00;0.00;;;23.20;53.90;;;;;;5059950;28;20098;-72
2022/03/29 10:45:04;;;;;;;0.00;0.00;;;22.90;53.50;;;;;;5079840;28;20016;-69
2022/03/29 10:47:30;;;;;;;0.00;0.00;;;22.60;49.90;;;;;;5079204;28;20028;-66
2022/03/29 10:49:57;;;;;;;0.00;0.00;;;22.50;50.60;;;;;;5060991;28;20033;-68
2022/03/29 10:52:23;;;;;;;0.00;0.00;;;22.70;50.90;;;;;;5079045;28;20017;-72
2022/03/29 10:54:50;;;;;;;0.00;0.00;;;23.00;55.70;;;;;;5061660;28;20020;-67
2022/03/29 10:57:24;;;;;;;0.00;0.00;;;23.40;48.90;;;;;;5079483;28;20139;-71
2022/03/29 11:00:06;;;;;;;0.00;0.00;;;23.40;47.40;;;;;;5061618;28;20059;-68
2022/03/29 11:02:32;;;;;;;0.00;0.00;;;23.30;46.80;;;;;;5060411;28;20243;-75
2022/03/29 11:05:08;;;;;;;0.00;0.00;;;23.30;47.50;;;;;;5061549;28;20300;-68
2022/03/29 11:07:36;;;;;;;0.00;0.00;;;23.10;47.60;;;;;;5060787;28;20062;-72
2022/03/29 11:10:33;;;;;;;0.00;0.00;;;23.20;48.10;;;;;;5060840;28;20188;-68
2022/03/29 11:12:59;;;;;;;0.00;0.00;;;23.30;46.50;;;;;;5060707;28;20016;-68
2022/03/29 11:15:25;;;;;;;0.00;0.00;;;23.10;45.80;;;;;;5060060;28;20027;-74
2022/03/29 11:17:55;;;;;;;0.00;0.00;;;23.00;45.20;;;;;;5060027;28;20229;-67
2022/03/29 11:20:33;;;;;;;0.00;0.00;;;22.80;46.90;;;;;;5078241;28;20189;-69
2022/03/29 11:23:05;;;;;;;0.00;0.00;;;22.80;45.30;;;;;;5059972;28;20021;-67
2022/03/29 11:25:40;;;;;;;0.00;0.00;;;22.90;45.90;;;;;;5060315;28;20310;-71
2022/03/29 11:28:14;;;;;;;0.00;0.00;;;23.10;47.70;;;;;;5078335;28;20013;-69
2022/03/29 11:30:41;;;;;;;0.00;0.00;;;22.90;46.10;;;;;;5070975;28;20201;-70
2022/03/29 11:33:09;;;;;;;0.00;0.00;;;22.80;47.30;;;;;;5060203;28;20153;-67
2022/03/29 11:35:37;;;;;;;0.00;0.00;;;22.80;54.20;;;;;;5059463;28;20066;-70
2022/03/29 11:38:07;;;;;;;;;;;23.00;51.90;;;;;;5060608;28;20020;-72
2022/03/29 11:40:33;;;;;;;0.00;0.00;;;23.10;57.60;;;;;;5059313;28;19987;-69
2022/03/29 11:43:00;;;;;;;0.00;0.00;;;23.40;49.50;;;;;;5060015;28;20023;-68
2022/03/29 11:45:35;;;;;;;0.00;0.00;;;23.50;51.30;;;;;;5059932;28;20036;-67
2022/03/29 11:48:07;;;;;;;0.00;0.00;;;23.70;47.90;;;;;;5078206;28;20059;-68
2022/03/29 11:50:54;;;;;;;0.00;0.00;;;23.80;51.50;;;;;;5077845;28;20017;-69
2022/03/29 11:53:30;;;;;;;0.00;0.00;;;24.00;47.20;;;;;;5060284;28;20044;-73
2022/03/29 11:55:58;;;;;;;0.00;0.00;;;23.90;49.40;;;;;;5059293;28;20453;-70
2022/03/29 11:58:26;;;;;;;0.00;0.00;;;23.90;49.60;;;;;;5077575;28;20024;-72
2022/03/29 12:00:56;;;;;;;0.00;0.00;;;24.00;46.50;;;;;;5060310;28;20013;-70
2022/03/29 12:03:42;;;;;;;0.00;0.00;;;24.00;46.50;;;;;;5077786;28;20082;-72
2022/03/29 12:06:21;;;;;;;0.00;0.00;;;24.00;49.70;;;;;;5078104;28;20111;-67
2022/03/29 12:08:59;;;;;;;0.00;0.00;;;24.00;50.60;;;;;;5059041;28;20048;-67
2022/03/29 12:11:37;;;;;;;0.00;0.00;;;23.80;47.00;;;;;;5059191;28;20016;-73
2022/03/29 12:14:20;;;;;;;0.00;0.00;;;23.60;45.80;;;;;;5056339;28;20136;-69
2022/03/29 12:16:51;;;;;;;0.00;0.00;;;23.30;45.90;;;;;;5077497;28;20092;-68
2022/03/29 12:19:22;;;;;;;0.00;0.00;;;23.10;47.60;;;;;;5077599;28;20071;-67
2022/03/29 12:21:53;;;;;;;0.00;0.00;;;23.00;47.00;;;;;;5059796;28;20020;-70
2022/03/29 12:24:20;;;;;;;0.00;0.00;;;22.90;45.70;;;;;;5060706;28;20070;-70
2022/03/29 12:26:49;;;;;;;0.00;0.00;;;22.70;45.90;;;;;;5076783;28;20223;-71
2022/03/29 12:29:22;;;;;;;0.00;0.00;;;22.60;47.40;;;;;;5076875;28;20052;-69
2022/03/29 12:31:49;;;;;;;0.00;0.00;;;22.40;45.60;;;;;;5060361;28;20016;-66
2022/03/29 12:34:24;;;;;;;0.00;0.00;;;22.20;44.80;;;;;;5077169;28;20322;-67
2022/03/29 12:36:53;;;;;;;0.00;0.00;;;22.00;47.90;;;;;;5058672;28;20032;-68
2022/03/29 12:39:18;;;;;;;;;;;21.90;51.40;;;;;;5076908;28;20021;-67
2022/03/29 12:41:51;;;;;;;0.00;0.00;;;21.80;49.50;;;;;;5057370;28;19907;-68
2022/03/29 12:44:34;;;;;;;0.00;0.00;;;21.80;50.30;;;;;;5076716;28;20055;-69
2022/03/29 12:47:02;;;;;;;0.00;0.00;;;21.70;54.20;;;;;;5060309;28;20043;-69
2022/03/29 12:49:29;;;;;;;0.00;0.00;;;21.70;48.40;;;;;;5059804;28;20028;-70
2022/03/29 12:52:00;;;;;;;0.00;0.00;;;21.50;47.70;;;;;;5057959;28;20128;-67
2022/03/29 12:54:48;;;;;;;0.00;0.00;;;21.40;52.30;;;;;;5057931;28;20095;-69
2022/03/29 12:57:16;;;;;;;0.00;0.00;;;21.40;48.00;;;;;;5076609;28;20279;-69
2022/03/29 12:59:44;;;;;;;;;;;21.40;48.50;;;;;;5059816;28;20341;-69
2022/03/29 13:02:34;;;;;;;0.00;0.00;;;21.40;47.90;;;;;;5059404;28;19900;-67
2022/03/29 13:05:03;;;;;;;0.00;0.00;;;21.40;46.90;;;;;;5077435;28;20138;-67